ADDS METAR Data INFO
IDs: Format: Raw Decoded Include TAF

Data at: 0349 UTC 18 Oct 2017

KBVY 180253Z AUTO 21008KT 10SM CLR 09/02 A3022 RMK AO2 SLP229 T00890022 50002
KBVY 180153Z AUTO 21007KT 10SM CLR 09/02 A3023 RMK AO2 SLP232 T00890022
KBVY 180053Z 22005KT 10SM CLR 08/01 A3022 RMK AO2 SLP231 LAST T00830011
KBVY 172353Z 19003KT 10SM CLR 09/01 A3021 RMK AO2 SLP227 T00890006 10139 20067 53003
KBVY 172253Z 00000KT 10SM CLR 09/01 A3020 RMK AO2 SLP224 T00890011
KBVY 172153Z 22004KT 10SM CLR 11/M02 A3020 RMK AO2 SLP222 T01111017
KBVY 172053Z 23005KT 10SM CLR 13/M02 A3020 RMK AO2 SLP223 T01331017 56013
KBVY 171953Z VRB04KT 10SM CLR 14/M02 A3021 RMK AO2 SLP226 T01391017
KBVY 171853Z 23005KT 10SM CLR 13/M01 A3022 RMK AO2 SLP231 T01331011
KBVY 171753Z 27008KT 10SM CLR 13/M02 A3024 RMK AO2 SLP236 T01281017 10133 20033 58016
KBVY 171653Z 29004KT 10SM CLR 12/00 A3025 RMK AO2 SLP241 T01220000
KBVY 171553Z VRB05KT 10SM CLR 12/00 A3028 RMK AO2 SLP249 T01170000
KBVY 171453Z 35004KT 10SM CLR 10/00 A3029 RMK AO2 SLP252 T01000000 50005
KBVY 171353Z 32005KT 10SM CLR 08/01 A3029 RMK AO2 SLP254 T00830006
KBVY 171253Z 33007KT 10SM FEW040 06/02 A3029 RMK AO2 SLP252 T00610017
KBVY 171153Z 33005KT 10SM CLR 03/01 A3027 RMK AO2 SLP247 T00330006 10044 20006 51020
KBVY 171053Z 33005KT 10SM CLR 01/00 A3026 RMK AO2 SLP242 T00110000
KBVY 170953Z AUTO 34005KT 10SM CLR 02/01 A3024 RMK AO2 SLP235 T00220006
KBVY 170853Z AUTO 32006KT 10SM CLR 02/M01 A3021 RMK AO2 SLP227 T00171006 52016
KBVY 170753Z AUTO 33006KT 10SM BKN045 03/01 A3020 RMK AO2 SLP222 T00330006
KBVY 170653Z AUTO 33007KT 10SM BKN041 03/01 A3018 RMK AO2 SLP217 T00330006
KBVY 170553Z AUTO 33005KT 10SM CLR 03/00 A3017 RMK AO2 SLP211 T00280000 10094 20028 53009
KBVY 170453Z AUTO 32007KT 10SM CLR 03/00 A3015 RMK AO2 SLP208 T00330000 402110033
KBVY 170353Z AUTO 33007KT 10SM CLR 05/01 A3015 RMK AO2 SLP205 T00500006
KBVY 170253Z AUTO 33008KT 10SM CLR 06/01 A3014 RMK AO2 SLP203 T00560011 51024
KBVY 170153Z AUTO 33009KT 10SM SCT055 07/01 A3012 RMK AO2 SLP195 T00720006
KBVY 170053Z 34016G20KT 10SM OVC050 09/02 A3010 RMK AO2 SLP188 LAST T00890017
KBVY 162353Z 33010KT 10SM BKN044 09/02 A3007 RMK AO2 SLP178 T00890022 10128 20089 53028
KBVY 162253Z 32014G21KT 10SM CLR 10/03 A3003 RMK AO2 SLP165 T01000028
KBVY 162153Z 32014KT 10SM CLR 11/03 A3000 RMK AO2 SLP154 T01110033
KBVY 162053Z 32010KT 10SM FEW050 BKN120 12/04 A2999 RMK AO2 SLP149 T01170044 53020
KBVY 161953Z 33010KT 10SM FEW050 BKN120 12/04 A2996 RMK AO2 SLP141 T01220044
KBVY 161853Z 33006KT 10SM FEW050 BKN120 12/05 A2993 RMK AO2 SLP131 T01220050
KBVY 161753Z 31011KT 10SM FEW050 BKN120 13/04 A2993 RMK AO2 SLP129 T01280044 10167 20122 50006
KBVY 161653Z 32013G18KT 10SM FEW050 BKN120 13/05 A2995 RMK AO2 SLP137 T01330050
KBVY 161553Z 33017G21KT 10SM CLR 13/05 A2993 RMK AO2 SLP130 T01280050